sensor_id;sensor_type;location;lat;lon;timestamp;P1;durP1;ratioP1;P2;durP2;ratioP2
17741;SDS011;8993;51.822;-2.268;2022-08-27T00:03:19;2.09;;;0.97;;
17741;SDS011;8993;51.822;-2.268;2022-08-27T00:08:23;2.61;;;1.05;;
17741;SDS011;8993;51.822;-2.268;2022-08-27T00:13:28;2.25;;;0.94;;
17741;SDS011;8993;51.822;-2.268;2022-08-27T00:18:32;3.10;;;1.15;;
17741;SDS011;8993;51.822;-2.268;2022-08-27T00:23:36;3.20;;;1.21;;
17741;SDS011;8993;51.822;-2.268;2022-08-27T00:28:40;3.17;;;1.31;;
17741;SDS011;8993;51.822;-2.268;2022-08-27T00:33:44;3.31;;;1.25;;
17741;SDS011;8993;51.822;-2.268;2022-08-27T00:38:48;3.16;;;1.54;;
17741;SDS011;8993;51.822;-2.268;2022-08-27T00:43:54;4.16;;;1.77;;
17741;SDS011;8993;51.822;-2.268;2022-08-27T00:48:58;2.79;;;1.27;;
17741;SDS011;8993;51.822;-2.268;2022-08-27T00:54:02;3.05;;;1.19;;
17741;SDS011;8993;51.822;-2.268;2022-08-27T00:59:06;1.85;;;1.14;;
17741;SDS011;8993;51.822;-2.268;2022-08-27T01:04:10;3.07;;;1.15;;
17741;SDS011;8993;51.822;-2.268;2022-08-27T01:09:14;3.89;;;1.49;;
17741;SDS011;8993;51.822;-2.268;2022-08-27T01:14:19;3.23;;;1.50;;
17741;SDS011;8993;51.822;-2.268;2022-08-27T01:19:25;3.98;;;1.63;;
17741;SDS011;8993;51.822;-2.268;2022-08-27T01:24:29;2.87;;;1.12;;
17741;SDS011;8993;51.822;-2.268;2022-08-27T01:29:31;2.20;;;0.97;;
17741;SDS011;8993;51.822;-2.268;2022-08-27T01:34:36;1.43;;;0.94;;
17741;SDS011;8993;51.822;-2.268;2022-08-27T01:39:40;2.18;;;1.06;;
17741;SDS011;8993;51.822;-2.268;2022-08-27T01:44:46;1.69;;;1.06;;
17741;SDS011;8993;51.822;-2.268;2022-08-27T01:49:49;2.05;;;1.08;;
17741;SDS011;8993;51.822;-2.268;2022-08-27T01:54:53;2.41;;;1.17;;
17741;SDS011;8993;51.822;-2.268;2022-08-27T01:59:57;1.61;;;1.10;;
17741;SDS011;8993;51.822;-2.268;2022-08-27T02:05:01;1.96;;;1.10;;
17741;SDS011;8993;51.822;-2.268;2022-08-27T02:10:07;1.89;;;1.08;;
17741;SDS011;8993;51.822;-2.268;2022-08-27T02:15:10;2.70;;;1.02;;
17741;SDS011;8993;51.822;-2.268;2022-08-27T02:20:15;2.55;;;1.22;;
17741;SDS011;8993;51.822;-2.268;2022-08-27T02:25:18;3.37;;;1.36;;
17741;SDS011;8993;51.822;-2.268;2022-08-27T02:30:23;2.24;;;1.28;;
17741;SDS011;8993;51.822;-2.268;2022-08-27T02:35:28;2.67;;;1.54;;
17741;SDS011;8993;51.822;-2.268;2022-08-27T02:40:31;2.42;;;1.40;;
17741;SDS011;8993;51.822;-2.268;2022-08-27T02:45:35;2.12;;;1.38;;
17741;SDS011;8993;51.822;-2.268;2022-08-27T02:50:39;2.02;;;1.36;;
17741;SDS011;8993;51.822;-2.268;2022-08-27T02:55:44;2.18;;;1.38;;
17741;SDS011;8993;51.822;-2.268;2022-08-27T03:00:48;2.29;;;1.26;;
17741;SDS011;8993;51.822;-2.268;2022-08-27T03:05:52;3.57;;;1.16;;
17741;SDS011;8993;51.822;-2.268;2022-08-27T03:10:56;2.45;;;1.34;;
17741;SDS011;8993;51.822;-2.268;2022-08-27T03:16:01;3.14;;;1.57;;
17741;SDS011;8993;51.822;-2.268;2022-08-27T03:21:05;3.16;;;1.36;;
17741;SDS011;8993;51.822;-2.268;2022-08-27T03:26:09;4.25;;;1.46;;
17741;SDS011;8993;51.822;-2.268;2022-08-27T03:31:14;2.59;;;1.43;;
17741;SDS011;8993;51.822;-2.268;2022-08-27T03:36:18;3.97;;;1.73;;
17741;SDS011;8993;51.822;-2.268;2022-08-27T03:41:23;2.12;;;1.49;;
17741;SDS011;8993;51.822;-2.268;2022-08-27T03:46:26;2.27;;;1.27;;
17741;SDS011;8993;51.822;-2.268;2022-08-27T03:51:31;1.70;;;1.13;;
17741;SDS011;8993;51.822;-2.268;2022-08-27T03:56:35;2.30;;;0.93;;
17741;SDS011;8993;51.822;-2.268;2022-08-27T04:01:41;1.53;;;1.03;;
17741;SDS011;8993;51.822;-2.268;2022-08-27T04:06:45;1.28;;;0.98;;
17741;SDS011;8993;51.822;-2.268;2022-08-27T04:11:49;5.47;;;1.96;;
17741;SDS011;8993;51.822;-2.268;2022-08-27T04:16:54;5.27;;;2.08;;
17741;SDS011;8993;51.822;-2.268;2022-08-27T04:21:59;3.79;;;1.71;;
17741;SDS011;8993;51.822;-2.268;2022-08-27T04:27:03;2.00;;;1.36;;
17741;SDS011;8993;51.822;-2.268;2022-08-27T04:32:07;3.21;;;1.50;;
17741;SDS011;8993;51.822;-2.268;2022-08-27T04:37:11;2.23;;;1.42;;
17741;SDS011;8993;51.822;-2.268;2022-08-27T04:42:17;3.38;;;1.50;;
17741;SDS011;8993;51.822;-2.268;2022-08-27T04:47:21;2.57;;;1.59;;
17741;SDS011;8993;51.822;-2.268;2022-08-27T04:52:25;3.37;;;2.26;;
17741;SDS011;8993;51.822;-2.268;2022-08-27T04:57:29;4.66;;;2.99;;
17741;SDS011;8993;51.822;-2.268;2022-08-27T05:02:33;4.97;;;2.96;;
17741;SDS011;8993;51.822;-2.268;2022-08-27T05:07:38;5.87;;;3.82;;
17741;SDS011;8993;51.822;-2.268;2022-08-27T05:12:42;6.61;;;4.18;;
17741;SDS011;8993;51.822;-2.268;2022-08-27T05:17:47;5.15;;;3.04;;
17741;SDS011;8993;51.822;-2.268;2022-08-27T05:22:53;4.69;;;3.19;;
17741;SDS011;8993;51.822;-2.268;2022-08-27T05:27:57;5.78;;;3.71;;
17741;SDS011;8993;51.822;-2.268;2022-08-27T05:33:02;4.76;;;3.19;;
17741;SDS011;8993;51.822;-2.268;2022-08-27T05:38:06;3.93;;;2.81;;
17741;SDS011;8993;51.822;-2.268;2022-08-27T05:43:10;6.27;;;3.69;;
17741;SDS011;8993;51.822;-2.268;2022-08-27T05:48:14;7.86;;;4.25;;
17741;SDS011;8993;51.822;-2.268;2022-08-27T05:53:18;6.73;;;3.63;;
17741;SDS011;8993;51.822;-2.268;2022-08-27T05:58:23;6.64;;;3.81;;
17741;SDS011;8993;51.822;-2.268;2022-08-27T06:03:27;7.40;;;4.17;;
17741;SDS011;8993;51.822;-2.268;2022-08-27T06:08:32;7.18;;;3.91;;
17741;SDS011;8993;51.822;-2.268;2022-08-27T06:13:36;5.50;;;3.77;;
17741;SDS011;8993;51.822;-2.268;2022-08-27T06:18:42;7.08;;;4.49;;
17741;SDS011;8993;51.822;-2.268;2022-08-27T06:23:45;8.99;;;4.96;;
17741;SDS011;8993;51.822;-2.268;2022-08-27T06:28:49;7.20;;;4.22;;
17741;SDS011;8993;51.822;-2.268;2022-08-27T06:33:57;7.82;;;5.09;;
17741;SDS011;8993;51.822;-2.268;2022-08-27T06:38:57;10.81;;;5.35;;
17741;SDS011;8993;51.822;-2.268;2022-08-27T06:44:02;9.99;;;5.41;;
17741;SDS011;8993;51.822;-2.268;2022-08-27T06:49:06;9.98;;;5.43;;
17741;SDS011;8993;51.822;-2.268;2022-08-27T06:54:12;11.20;;;6.88;;
17741;SDS011;8993;51.822;-2.268;2022-08-27T06:59:16;11.28;;;6.80;;
17741;SDS011;8993;51.822;-2.268;2022-08-27T07:04:20;13.99;;;8.57;;
17741;SDS011;8993;51.822;-2.268;2022-08-27T07:09:24;27.09;;;14.52;;
17741;SDS011;8993;51.822;-2.268;2022-08-27T07:14:29;24.38;;;14.17;;
17741;SDS011;8993;51.822;-2.268;2022-08-27T07:19:34;31.92;;;16.59;;
17741;SDS011;8993;51.822;-2.268;2022-08-27T07:24:37;26.30;;;15.21;;
17741;SDS011;8993;51.822;-2.268;2022-08-27T07:29:42;29.02;;;16.93;;
17741;SDS011;8993;51.822;-2.268;2022-08-27T07:34:46;23.77;;;14.55;;
17741;SDS011;8993;51.822;-2.268;2022-08-27T07:39:50;28.39;;;16.24;;
17741;SDS011;8993;51.822;-2.268;2022-08-27T07:44:55;28.00;;;17.05;;
17741;SDS011;8993;51.822;-2.268;2022-08-27T07:49:59;25.59;;;16.02;;
17741;SDS011;8993;51.822;-2.268;2022-08-27T07:55:05;31.32;;;18.33;;
17741;SDS011;8993;51.822;-2.268;2022-08-27T08:00:09;34.71;;;20.63;;
17741;SDS011;8993;51.822;-2.268;2022-08-27T08:05:13;30.80;;;19.45;;
17741;SDS011;8993;51.822;-2.268;2022-08-27T08:10:17;35.21;;;20.48;;
17741;SDS011;8993;51.822;-2.268;2022-08-27T08:15:22;29.02;;;17.65;;
17741;SDS011;8993;51.822;-2.268;2022-08-27T08:20:25;31.02;;;19.06;;
17741;SDS011;8993;51.822;-2.268;2022-08-27T08:25:30;35.85;;;21.69;;
17741;SDS011;8993;51.822;-2.268;2022-08-27T08:30:34;36.59;;;21.37;;
17741;SDS011;8993;51.822;-2.268;2022-08-27T08:35:39;38.48;;;22.91;;
17741;SDS011;8993;51.822;-2.268;2022-08-27T08:40:43;39.22;;;22.57;;
17741;SDS011;8993;51.822;-2.268;2022-08-27T08:45:47;40.50;;;23.47;;
17741;SDS011;8993;51.822;-2.268;2022-08-27T08:50:52;39.48;;;23.92;;
17741;SDS011;8993;51.822;-2.268;2022-08-27T08:55:56;34.78;;;22.34;;
17741;SDS011;8993;51.822;-2.268;2022-08-27T09:01:00;41.75;;;24.87;;
17741;SDS011;8993;51.822;-2.268;2022-08-27T09:06:05;40.57;;;24.58;;
17741;SDS011;8993;51.822;-2.268;2022-08-27T09:11:12;38.59;;;24.07;;
17741;SDS011;8993;51.822;-2.268;2022-08-27T09:16:13;36.59;;;23.86;;
17741;SDS011;8993;51.822;-2.268;2022-08-27T09:21:21;38.75;;;23.64;;
17741;SDS011;8993;51.822;-2.268;2022-08-27T09:26:22;39.30;;;24.49;;
17741;SDS011;8993;51.822;-2.268;2022-08-27T09:31:26;37.37;;;24.60;;
17741;SDS011;8993;51.822;-2.268;2022-08-27T09:36:30;35.52;;;23.70;;
17741;SDS011;8993;51.822;-2.268;2022-08-27T09:41:38;35.22;;;23.79;;
17741;SDS011;8993;51.822;-2.268;2022-08-27T09:46:39;33.04;;;22.67;;
17741;SDS011;8993;51.822;-2.268;2022-08-27T09:51:43;35.93;;;22.86;;
17741;SDS011;8993;51.822;-2.268;2022-08-27T09:56:47;36.49;;;22.70;;
17741;SDS011;8993;51.822;-2.268;2022-08-27T10:01:52;39.79;;;24.88;;
17741;SDS011;8993;51.822;-2.268;2022-08-27T10:06:56;34.10;;;23.38;;
17741;SDS011;8993;51.822;-2.268;2022-08-27T10:12:02;33.75;;;22.79;;
17741;SDS011;8993;51.822;-2.268;2022-08-27T10:17:08;35.69;;;23.83;;
17741;SDS011;8993;51.822;-2.268;2022-08-27T10:22:11;36.19;;;23.92;;
17741;SDS011;8993;51.822;-2.268;2022-08-27T10:27:16;35.62;;;23.06;;
17741;SDS011;8993;51.822;-2.268;2022-08-27T10:32:21;35.62;;;22.59;;
17741;SDS011;8993;51.822;-2.268;2022-08-27T10:37:23;32.64;;;20.89;;
17741;SDS011;8993;51.822;-2.268;2022-08-27T10:42:27;30.67;;;20.55;;
17741;SDS011;8993;51.822;-2.268;2022-08-27T10:47:34;30.28;;;20.42;;
17741;SDS011;8993;51.822;-2.268;2022-08-27T10:52:36;31.66;;;20.11;;
17741;SDS011;8993;51.822;-2.268;2022-08-27T10:57:42;29.12;;;18.81;;
17741;SDS011;8993;51.822;-2.268;2022-08-27T11:02:45;28.93;;;17.86;;
17741;SDS011;8993;51.822;-2.268;2022-08-27T11:07:48;27.98;;;17.39;;
17741;SDS011;8993;51.822;-2.268;2022-08-27T11:12:52;23.99;;;16.15;;
17741;SDS011;8993;51.822;-2.268;2022-08-27T11:17:58;20.68;;;13.67;;
17741;SDS011;8993;51.822;-2.268;2022-08-27T11:28:06;20.51;;;11.82;;
17741;SDS011;8993;51.822;-2.268;2022-08-27T11:33:13;21.37;;;11.91;;
17741;SDS011;8993;51.822;-2.268;2022-08-27T11:38:21;19.85;;;12.51;;
17741;SDS011;8993;51.822;-2.268;2022-08-27T11:43:19;17.78;;;11.04;;
17741;SDS011;8993;51.822;-2.268;2022-08-27T11:48:24;17.38;;;10.18;;
17741;SDS011;8993;51.822;-2.268;2022-08-27T11:53:29;14.05;;;7.71;;
17741;SDS011;8993;51.822;-2.268;2022-08-27T11:58:32;14.52;;;8.49;;
17741;SDS011;8993;51.822;-2.268;2022-08-27T12:03:36;17.62;;;9.25;;
17741;SDS011;8993;51.822;-2.268;2022-08-27T12:08:40;17.06;;;7.76;;
17741;SDS011;8993;51.822;-2.268;2022-08-27T12:13:49;15.50;;;7.39;;
17741;SDS011;8993;51.822;-2.268;2022-08-27T12:18:51;12.00;;;6.17;;
17741;SDS011;8993;51.822;-2.268;2022-08-27T12:24:01;12.27;;;5.23;;
17741;SDS011;8993;51.822;-2.268;2022-08-27T12:29:34;11.65;;;4.31;;
17741;SDS011;8993;51.822;-2.268;2022-08-27T12:34:02;11.67;;;4.38;;
17741;SDS011;8993;51.822;-2.268;2022-08-27T12:39:11;8.20;;;3.82;;
17741;SDS011;8993;51.822;-2.268;2022-08-27T12:44:12;7.89;;;3.07;;
17741;SDS011;8993;51.822;-2.268;2022-08-27T12:49:16;9.99;;;4.51;;
17741;SDS011;8993;51.822;-2.268;2022-08-27T12:54:23;9.13;;;3.77;;
17741;SDS011;8993;51.822;-2.268;2022-08-27T12:59:31;9.98;;;3.70;;
17741;SDS011;8993;51.822;-2.268;2022-08-27T13:04:29;8.48;;;3.32;;
17741;SDS011;8993;51.822;-2.268;2022-08-27T13:09:34;7.70;;;3.42;;
17741;SDS011;8993;51.822;-2.268;2022-08-27T13:14:38;7.62;;;2.70;;
17741;SDS011;8993;51.822;-2.268;2022-08-27T13:19:43;6.35;;;2.57;;
17741;SDS011;8993;51.822;-2.268;2022-08-27T13:24:47;7.06;;;2.68;;
17741;SDS011;8993;51.822;-2.268;2022-08-27T13:29:50;5.46;;;2.17;;
17741;SDS011;8993;51.822;-2.268;2022-08-27T13:34:54;5.73;;;2.32;;
17741;SDS011;8993;51.822;-2.268;2022-08-27T13:39:59;5.21;;;2.33;;
17741;SDS011;8993;51.822;-2.268;2022-08-27T13:45:03;4.97;;;1.90;;
17741;SDS011;8993;51.822;-2.268;2022-08-27T13:50:10;9.35;;;2.19;;
17741;SDS011;8993;51.822;-2.268;2022-08-27T13:55:14;4.92;;;1.59;;
17741;SDS011;8993;51.822;-2.268;2022-08-27T14:00:18;5.93;;;1.66;;
17741;SDS011;8993;51.822;-2.268;2022-08-27T14:05:26;5.37;;;1.63;;
17741;SDS011;8993;51.822;-2.268;2022-08-27T14:10:30;4.75;;;1.42;;
17741;SDS011;8993;51.822;-2.268;2022-08-27T14:15:31;4.36;;;1.20;;
17741;SDS011;8993;51.822;-2.268;2022-08-27T14:20:33;6.35;;;1.38;;
17741;SDS011;8993;51.822;-2.268;2022-08-27T14:25:38;3.15;;;1.05;;
17741;SDS011;8993;51.822;-2.268;2022-08-27T14:30:41;5.25;;;1.21;;
17741;SDS011;8993;51.822;-2.268;2022-08-27T14:35:47;4.05;;;1.37;;
17741;SDS011;8993;51.822;-2.268;2022-08-27T14:40:52;5.31;;;1.14;;
17741;SDS011;8993;51.822;-2.268;2022-08-27T14:45:55;4.20;;;0.96;;
17741;SDS011;8993;51.822;-2.268;2022-08-27T14:51:01;4.79;;;1.03;;
17741;SDS011;8993;51.822;-2.268;2022-08-27T14:56:04;2.59;;;0.95;;
17741;SDS011;8993;51.822;-2.268;2022-08-27T15:01:08;4.38;;;0.93;;
17741;SDS011;8993;51.822;-2.268;2022-08-27T15:06:13;4.67;;;0.97;;
17741;SDS011;8993;51.822;-2.268;2022-08-27T15:11:18;2.89;;;0.99;;
17741;SDS011;8993;51.822;-2.268;2022-08-27T15:16:29;4.68;;;0.97;;
17741;SDS011;8993;51.822;-2.268;2022-08-27T15:21:26;3.72;;;0.92;;
17741;SDS011;8993;51.822;-2.268;2022-08-27T15:26:30;3.29;;;0.85;;
17741;SDS011;8993;51.822;-2.268;2022-08-27T15:31:36;3.33;;;1.17;;
17741;SDS011;8993;51.822;-2.268;2022-08-27T15:36:40;2.90;;;0.95;;
17741;SDS011;8993;51.822;-2.268;2022-08-27T15:41:44;3.36;;;0.92;;
17741;SDS011;8993;51.822;-2.268;2022-08-27T15:46:48;3.13;;;0.90;;
17741;SDS011;8993;51.822;-2.268;2022-08-27T15:51:53;5.22;;;1.13;;
17741;SDS011;8993;51.822;-2.268;2022-08-27T15:56:57;5.39;;;1.10;;
17741;SDS011;8993;51.822;-2.268;2022-08-27T16:02:02;3.80;;;1.06;;
17741;SDS011;8993;51.822;-2.268;2022-08-27T16:07:06;5.04;;;1.07;;
17741;SDS011;8993;51.822;-2.268;2022-08-27T16:12:11;4.86;;;1.21;;
17741;SDS011;8993;51.822;-2.268;2022-08-27T16:17:15;4.23;;;1.03;;
17741;SDS011;8993;51.822;-2.268;2022-08-27T16:22:19;6.67;;;1.35;;
17741;SDS011;8993;51.822;-2.268;2022-08-27T16:27:23;4.72;;;1.07;;
17741;SDS011;8993;51.822;-2.268;2022-08-27T16:32:28;4.69;;;1.29;;
17741;SDS011;8993;51.822;-2.268;2022-08-27T16:37:33;5.67;;;1.31;;
17741;SDS011;8993;51.822;-2.268;2022-08-27T16:42:37;4.69;;;1.17;;
17741;SDS011;8993;51.822;-2.268;2022-08-27T16:47:41;4.73;;;1.34;;
17741;SDS011;8993;51.822;-2.268;2022-08-27T16:52:46;4.51;;;1.01;;
17741;SDS011;8993;51.822;-2.268;2022-08-27T16:57:50;5.68;;;1.21;;
17741;SDS011;8993;51.822;-2.268;2022-08-27T17:02:55;4.63;;;1.11;;
17741;SDS011;8993;51.822;-2.268;2022-08-27T17:07:59;4.73;;;1.06;;
17741;SDS011;8993;51.822;-2.268;2022-08-27T17:13:04;4.27;;;1.17;;
17741;SDS011;8993;51.822;-2.268;2022-08-27T17:18:08;3.74;;;0.90;;
17741;SDS011;8993;51.822;-2.268;2022-08-27T17:23:14;4.52;;;1.02;;
17741;SDS011;8993;51.822;-2.268;2022-08-27T17:28:16;4.36;;;0.92;;
17741;SDS011;8993;51.822;-2.268;2022-08-27T17:33:21;2.86;;;0.90;;
17741;SDS011;8993;51.822;-2.268;2022-08-27T17:38:27;6.60;;;0.90;;
17741;SDS011;8993;51.822;-2.268;2022-08-27T17:43:30;4.32;;;0.85;;
17741;SDS011;8993;51.822;-2.268;2022-08-27T17:48:34;3.76;;;1.00;;
17741;SDS011;8993;51.822;-2.268;2022-08-27T17:53:41;3.04;;;0.79;;
17741;SDS011;8993;51.822;-2.268;2022-08-27T17:58:43;3.90;;;1.11;;
17741;SDS011;8993;51.822;-2.268;2022-08-27T18:03:48;6.86;;;2.03;;
17741;SDS011;8993;51.822;-2.268;2022-08-27T18:08:52;6.91;;;2.52;;
17741;SDS011;8993;51.822;-2.268;2022-08-27T18:14:01;4.21;;;1.70;;
17741;SDS011;8993;51.822;-2.268;2022-08-27T18:19:05;12.65;;;5.69;;
17741;SDS011;8993;51.822;-2.268;2022-08-27T18:24:09;12.35;;;5.43;;
17741;SDS011;8993;51.822;-2.268;2022-08-27T18:29:13;4.50;;;1.52;;
17741;SDS011;8993;51.822;-2.268;2022-08-27T18:34:18;4.21;;;1.17;;
17741;SDS011;8993;51.822;-2.268;2022-08-27T18:39:22;5.71;;;1.21;;
17741;SDS011;8993;51.822;-2.268;2022-08-27T18:44:27;3.83;;;0.95;;
17741;SDS011;8993;51.822;-2.268;2022-08-27T18:49:31;5.42;;;1.17;;
17741;SDS011;8993;51.822;-2.268;2022-08-27T18:54:37;6.00;;;1.27;;
17741;SDS011;8993;51.822;-2.268;2022-08-27T18:59:42;5.08;;;1.26;;
17741;SDS011;8993;51.822;-2.268;2022-08-27T19:04:46;5.22;;;1.31;;
17741;SDS011;8993;51.822;-2.268;2022-08-27T19:09:51;4.22;;;1.35;;
17741;SDS011;8993;51.822;-2.268;2022-08-27T19:14:55;4.09;;;1.29;;
17741;SDS011;8993;51.822;-2.268;2022-08-27T19:20:00;5.23;;;1.32;;
17741;SDS011;8993;51.822;-2.268;2022-08-27T19:25:05;7.01;;;1.36;;
17741;SDS011;8993;51.822;-2.268;2022-08-27T19:30:09;4.56;;;1.18;;
17741;SDS011;8993;51.822;-2.268;2022-08-27T19:40:17;3.92;;;1.05;;
17741;SDS011;8993;51.822;-2.268;2022-08-27T19:45:21;4.88;;;1.14;;
17741;SDS011;8993;51.822;-2.268;2022-08-27T19:50:25;5.84;;;1.40;;
17741;SDS011;8993;51.822;-2.268;2022-08-27T19:55:31;3.88;;;1.11;;
17741;SDS011;8993;51.822;-2.268;2022-08-27T20:00:35;5.02;;;1.13;;
17741;SDS011;8993;51.822;-2.268;2022-08-27T20:05:39;5.67;;;1.14;;
17741;SDS011;8993;51.822;-2.268;2022-08-27T20:10:44;4.36;;;1.01;;
17741;SDS011;8993;51.822;-2.268;2022-08-27T20:15:49;4.44;;;1.01;;
17741;SDS011;8993;51.822;-2.268;2022-08-27T20:20:52;4.54;;;1.03;;
17741;SDS011;8993;51.822;-2.268;2022-08-27T20:25:57;5.51;;;1.01;;
17741;SDS011;8993;51.822;-2.268;2022-08-27T20:31:01;3.94;;;1.12;;
17741;SDS011;8993;51.822;-2.268;2022-08-27T20:36:07;5.32;;;1.23;;
17741;SDS011;8993;51.822;-2.268;2022-08-27T20:41:13;5.59;;;1.36;;
17741;SDS011;8993;51.822;-2.268;2022-08-27T20:46:19;3.54;;;1.31;;
17741;SDS011;8993;51.822;-2.268;2022-08-27T20:51:24;2.55;;;1.05;;
17741;SDS011;8993;51.822;-2.268;2022-08-27T20:56:28;3.59;;;0.91;;
17741;SDS011;8993;51.822;-2.268;2022-08-27T21:01:35;4.75;;;0.89;;
17741;SDS011;8993;51.822;-2.268;2022-08-27T21:06:39;3.80;;;0.80;;
17741;SDS011;8993;51.822;-2.268;2022-08-27T21:11:44;3.64;;;0.87;;
17741;SDS011;8993;51.822;-2.268;2022-08-27T21:16:48;5.21;;;0.98;;
17741;SDS011;8993;51.822;-2.268;2022-08-27T21:21:52;4.69;;;1.02;;
17741;SDS011;8993;51.822;-2.268;2022-08-27T21:26:57;3.16;;;0.98;;
17741;SDS011;8993;51.822;-2.268;2022-08-27T21:32:01;4.48;;;0.94;;
17741;SDS011;8993;51.822;-2.268;2022-08-27T21:37:05;3.99;;;0.77;;
17741;SDS011;8993;51.822;-2.268;2022-08-27T21:42:10;1.82;;;0.79;;
17741;SDS011;8993;51.822;-2.268;2022-08-27T21:47:14;2.33;;;0.73;;
17741;SDS011;8993;51.822;-2.268;2022-08-27T21:52:18;4.04;;;0.80;;
17741;SDS011;8993;51.822;-2.268;2022-08-27T21:57:22;3.72;;;0.71;;
17741;SDS011;8993;51.822;-2.268;2022-08-27T22:02:26;3.97;;;0.82;;
17741;SDS011;8993;51.822;-2.268;2022-08-27T22:07:31;2.68;;;0.71;;
17741;SDS011;8993;51.822;-2.268;2022-08-27T22:12:35;2.34;;;0.69;;
17741;SDS011;8993;51.822;-2.268;2022-08-27T22:17:39;3.14;;;0.72;;
17741;SDS011;8993;51.822;-2.268;2022-08-27T22:22:44;4.38;;;0.77;;
17741;SDS011;8993;51.822;-2.268;2022-08-27T22:27:48;4.32;;;0.84;;
17741;SDS011;8993;51.822;-2.268;2022-08-27T22:32:52;4.09;;;0.80;;
17741;SDS011;8993;51.822;-2.268;2022-08-27T22:37:56;4.21;;;0.89;;
17741;SDS011;8993;51.822;-2.268;2022-08-27T22:43:01;3.65;;;0.78;;
17741;SDS011;8993;51.822;-2.268;2022-08-27T22:48:06;3.93;;;0.85;;
17741;SDS011;8993;51.822;-2.268;2022-08-27T22:53:10;3.35;;;0.87;;
17741;SDS011;8993;51.822;-2.268;2022-08-27T22:58:15;4.09;;;1.20;;
17741;SDS011;8993;51.822;-2.268;2022-08-27T23:03:19;4.91;;;1.16;;
17741;SDS011;8993;51.822;-2.268;2022-08-27T23:08:23;5.95;;;1.88;;
17741;SDS011;8993;51.822;-2.268;2022-08-27T23:13:28;5.03;;;1.70;;
17741;SDS011;8993;51.822;-2.268;2022-08-27T23:18:32;5.55;;;1.21;;
17741;SDS011;8993;51.822;-2.268;2022-08-27T23:28:40;5.13;;;1.34;;
17741;SDS011;8993;51.822;-2.268;2022-08-27T23:33:46;7.44;;;1.55;;
17741;SDS011;8993;51.822;-2.268;2022-08-27T23:38:51;7.06;;;1.48;;
17741;SDS011;8993;51.822;-2.268;2022-08-27T23:43:56;4.57;;;1.50;;
17741;SDS011;8993;51.822;-2.268;2022-08-27T23:49:00;5.20;;;1.69;;
17741;SDS011;8993;51.822;-2.268;2022-08-27T23:54:05;7.25;;;2.01;;
17741;SDS011;8993;51.822;-2.268;2022-08-27T23:59:09;11.08;;;4.23;;
